createdAt,value
2022-09-28T00:00:26.424Z,25.02
2022-09-28T00:01:01.074Z,26.52
2022-09-28T00:01:33.265Z,27.27
2022-09-28T00:02:05.551Z,28.00
2022-09-28T00:02:40.836Z,27.80
2022-09-28T00:03:13.872Z,26.90
2022-09-28T00:03:46.773Z,26.05
2022-09-28T00:04:21.569Z,25.80
2022-09-28T00:04:53.644Z,27.00
2022-09-28T00:05:27.123Z,26.50
2022-09-28T00:06:02.578Z,26.95
2022-09-28T00:06:37.226Z,27.23
2022-09-28T00:07:09.306Z,27.75
2022-09-28T00:07:44.045Z,27.45
2022-09-28T00:08:18.852Z,26.58
2022-09-28T00:08:51.846Z,27.08
2022-09-28T00:09:23.971Z,26.40
2022-09-28T00:09:58.630Z,27.90
2022-09-28T00:10:30.767Z,27.48
2022-09-28T00:11:03.810Z,25.73
2022-09-28T00:11:38.692Z,26.13
2022-09-28T00:12:11.917Z,25.92
2022-09-28T00:12:44.001Z,28.10
2022-09-28T00:13:18.735Z,26.15
2022-09-28T00:13:52.446Z,26.00
2022-09-28T00:14:24.674Z,26.38
2022-09-28T00:14:59.589Z,27.08
2022-09-28T00:15:31.804Z,26.63
2022-09-28T00:16:05.229Z,27.98
2022-09-28T00:16:42.374Z,28.25
2022-09-28T00:17:16.916Z,27.17
2022-09-28T00:17:48.998Z,27.02
2022-09-28T00:18:24.249Z,27.70
2022-09-28T00:18:56.583Z,25.55
2022-09-28T00:19:31.284Z,26.55
2022-09-28T00:20:05.576Z,27.63
2022-09-28T00:20:37.849Z,28.25
2022-09-28T00:21:14.455Z,30.45
2022-09-28T00:21:46.690Z,28.13
2022-09-28T00:22:18.852Z,27.27
2022-09-28T00:22:56.103Z,26.85
2022-09-28T00:23:28.254Z,29.17
2022-09-28T00:24:15.893Z,26.00
2022-09-28T00:24:50.791Z,27.60
2022-09-28T00:25:25.051Z,27.98
2022-09-28T00:26:01.407Z,26.77
2022-09-28T00:26:34.286Z,26.23
2022-09-28T00:27:09.665Z,27.00
2022-09-28T00:27:42.317Z,28.00
2022-09-28T00:28:14.409Z,27.67
2022-09-28T00:28:46.526Z,27.20
2022-09-28T00:29:26.692Z,28.50
2022-09-28T00:29:59.098Z,25.73
2022-09-28T00:30:31.597Z,26.58
2022-09-28T00:31:06.329Z,27.08
2022-09-28T00:31:38.558Z,27.73
2022-09-28T00:32:13.473Z,26.98
2022-09-28T00:32:48.113Z,27.15
2022-09-28T00:33:20.186Z,27.17
2022-09-28T00:33:53.137Z,27.02
2022-09-28T00:34:28.005Z,28.73
2022-09-28T00:35:00.078Z,28.25
2022-09-28T00:35:32.183Z,29.95
2022-09-28T00:36:08.485Z,25.92
2022-09-28T00:36:44.305Z,29.73
2022-09-28T00:37:21.746Z,27.65
2022-09-28T00:37:56.477Z,27.30
2022-09-28T00:38:29.659Z,27.02
2022-09-28T00:39:06.684Z,29.45
2022-09-28T00:39:43.559Z,27.85
2022-09-28T00:40:16.118Z,26.27
2022-09-28T00:40:48.234Z,30.05
2022-09-28T00:41:20.405Z,27.90
2022-09-28T00:41:55.115Z,27.67
2022-09-28T00:42:27.546Z,28.85
2022-09-28T00:43:00.065Z,27.67
2022-09-28T00:43:34.798Z,26.15
2022-09-28T00:44:34.534Z,28.08
2022-09-28T00:45:11.795Z,27.63
2022-09-28T00:45:44.509Z,26.50
2022-09-28T00:46:21.389Z,26.13
2022-09-28T00:46:56.792Z,26.65
2022-09-28T00:47:42.643Z,26.80
2022-09-28T00:48:15.043Z,26.45
2022-09-28T00:48:54.568Z,26.65
2022-09-28T00:49:35.823Z,25.98
2022-09-28T00:50:14.237Z,26.05
2022-09-28T00:50:46.573Z,26.23
2022-09-28T00:51:21.567Z,27.50
2022-09-28T00:51:53.743Z,25.38
2022-09-28T00:52:30.237Z,26.42
2022-09-28T00:53:14.509Z,24.88
2022-09-28T00:53:47.613Z,25.10
2022-09-28T00:54:19.782Z,25.23
2022-09-28T00:54:56.208Z,26.40
2022-09-28T00:55:35.997Z,24.15
2022-09-28T00:56:11.556Z,24.48
2022-09-28T00:56:50.131Z,26.90
2022-09-28T00:57:23.443Z,24.35
2022-09-28T00:58:02.769Z,27.77
2022-09-28T00:58:39.617Z,26.15
2022-09-28T00:59:11.729Z,24.60
2022-09-28T00:59:47.187Z,25.00
2022-09-28T01:00:19.817Z,26.05
2022-09-28T01:00:56.122Z,25.55
2022-09-28T01:01:28.700Z,26.77
2022-09-28T01:02:01.774Z,25.90
2022-09-28T01:02:36.606Z,27.08
2022-09-28T01:03:09.165Z,25.88
2022-09-28T01:03:45.483Z,25.65
2022-09-28T01:04:21.292Z,27.30
2022-09-28T01:04:53.826Z,28.45
2022-09-28T01:05:30.263Z,25.13
2022-09-28T01:06:05.136Z,25.50
2022-09-28T01:06:39.141Z,24.33
2022-09-28T01:07:15.509Z,27.33
2022-09-28T01:07:48.846Z,26.40
2022-09-28T01:08:28.764Z,26.80
2022-09-28T01:09:04.622Z,27.13
2022-09-28T01:09:39.390Z,25.58
2022-09-28T01:10:14.344Z,28.05
2022-09-28T01:10:47.082Z,26.73
2022-09-28T01:11:22.562Z,27.17
2022-09-28T01:11:57.763Z,26.58
2022-09-28T01:12:30.250Z,28.20
2022-09-28T01:13:02.533Z,28.08
2022-09-28T01:13:37.307Z,26.05
2022-09-28T01:14:12.354Z,25.63
2022-09-28T01:14:45.200Z,26.67
2022-09-28T01:15:21.897Z,27.90
2022-09-28T01:16:03.618Z,25.95
2022-09-28T01:16:42.338Z,28.27
2022-09-28T01:17:33.623Z,26.63
2022-09-28T01:18:17.504Z,27.35
2022-09-28T01:19:01.548Z,28.42
2022-09-28T01:20:09.290Z,24.63
2022-09-28T01:21:00.202Z,26.05
2022-09-28T01:21:39.733Z,24.13
2022-09-28T01:22:26.769Z,24.20
2022-09-28T01:23:32.519Z,26.20
2022-09-28T01:24:22.627Z,24.95
2022-09-28T01:25:01.544Z,26.30
2022-09-28T01:25:41.515Z,24.77
2022-09-28T01:26:56.623Z,24.65
2022-09-28T01:27:32.340Z,24.40
2022-09-28T01:28:08.027Z,25.02
2022-09-28T01:28:46.506Z,24.40
2022-09-28T01:29:29.710Z,24.70
2022-09-28T01:30:08.605Z,27.20
2022-09-28T01:30:47.414Z,26.65
2022-09-28T01:31:26.125Z,23.98
2022-09-28T01:32:13.582Z,25.13
2022-09-28T01:32:51.493Z,24.80
2022-09-28T01:33:28.420Z,25.45
2022-09-28T01:34:07.998Z,25.17
2022-09-28T01:34:47.387Z,25.63
2022-09-28T01:35:27.906Z,27.00
2022-09-28T01:36:42.887Z,25.33
2022-09-28T01:37:22.697Z,27.63
2022-09-28T01:38:00.691Z,25.45
2022-09-28T01:38:37.920Z,25.90
2022-09-28T01:39:16.162Z,25.25
2022-09-28T01:39:50.286Z,24.88
2022-09-28T01:40:27.977Z,23.33
2022-09-28T01:41:01.239Z,24.80
2022-09-28T01:41:36.908Z,23.73
2022-09-28T01:42:20.306Z,25.33
2022-09-28T01:42:57.842Z,22.73
2022-09-28T01:43:35.523Z,24.35
2022-09-28T01:44:15.119Z,25.85
2022-09-28T01:44:53.470Z,23.35
2022-09-28T01:45:31.401Z,23.85
2022-09-28T01:46:14.571Z,23.17
2022-09-28T01:46:49.425Z,23.90
2022-09-28T01:47:24.360Z,24.55
2022-09-28T01:48:03.162Z,24.63
2022-09-28T01:48:40.398Z,23.20
2022-09-28T01:49:18.740Z,23.58
2022-09-28T01:50:01.112Z,22.90
2022-09-28T01:50:38.147Z,23.65
2022-09-28T01:51:15.065Z,23.50
2022-09-28T01:51:55.475Z,24.60
2022-09-28T01:52:34.166Z,21.55
2022-09-28T01:53:15.996Z,21.92
2022-09-28T01:53:56.074Z,23.92
2022-09-28T01:54:42.130Z,22.95
2022-09-28T01:55:24.319Z,24.38
2022-09-28T01:56:03.179Z,22.35
2022-09-28T01:56:40.560Z,23.25
2022-09-28T01:57:22.574Z,22.80
2022-09-28T01:58:01.079Z,21.42
2022-09-28T01:58:41.431Z,22.35
2022-09-28T01:59:17.690Z,22.08
2022-09-28T01:59:57.816Z,23.90
2022-09-28T02:00:33.152Z,22.10
2022-09-28T02:01:13.228Z,22.92
2022-09-28T02:01:52.154Z,23.25
2022-09-28T02:02:31.187Z,22.42
2022-09-28T02:03:11.118Z,23.08
2022-09-28T02:04:02.527Z,23.48
2022-09-28T02:04:42.009Z,23.17
2022-09-28T02:05:18.569Z,22.85
2022-09-28T02:05:58.913Z,22.45
2022-09-28T02:06:38.873Z,23.20
2022-09-28T02:07:16.709Z,22.90
2022-09-28T02:07:59.717Z,22.50
2022-09-28T02:08:35.286Z,25.27
2022-09-28T02:09:11.835Z,22.65
2022-09-28T02:09:58.563Z,23.13
2022-09-28T02:10:33.673Z,23.55
2022-09-28T02:11:11.674Z,23.73
2022-09-28T02:11:53.701Z,24.20
2022-09-28T02:12:33.787Z,22.25
2022-09-28T02:13:11.278Z,23.45
2022-09-28T02:13:49.842Z,24.30
2022-09-28T02:14:23.818Z,24.15
2022-09-28T02:15:06.686Z,23.95
2022-09-28T02:15:46.002Z,23.42
2022-09-28T02:16:22.992Z,25.33
2022-09-28T02:16:56.722Z,24.52
2022-09-28T02:17:37.644Z,23.20
2022-09-28T02:18:10.829Z,24.10
2022-09-28T02:18:45.008Z,25.02
2022-09-28T02:19:24.384Z,24.17
2022-09-28T02:19:56.645Z,24.02
2022-09-28T02:20:34.859Z,24.00
2022-09-28T02:21:13.371Z,23.15
2022-09-28T02:21:54.035Z,23.70
2022-09-28T02:22:37.450Z,24.17
2022-09-28T02:23:10.894Z,24.17
2022-09-28T02:23:52.483Z,24.58
2022-09-28T02:24:33.769Z,23.65
2022-09-28T02:25:11.036Z,22.40
2022-09-28T02:25:49.843Z,24.05
2022-09-28T02:26:32.373Z,23.40
2022-09-28T02:27:12.884Z,25.48
2022-09-28T02:27:59.814Z,22.20
2022-09-28T02:28:32.738Z,25.15
2022-09-28T02:29:05.160Z,24.50
2022-09-28T02:29:39.857Z,24.13
2022-09-28T02:30:12.607Z,25.02
2022-09-28T02:30:45.264Z,24.02
2022-09-28T02:31:21.542Z,24.25
2022-09-28T02:31:53.917Z,23.83
2022-09-28T02:32:28.789Z,23.50
2022-09-28T02:33:10.297Z,24.92
2022-09-28T02:33:44.524Z,25.08
2022-09-28T02:34:16.679Z,23.60
2022-09-28T02:34:51.360Z,23.90
2022-09-28T02:35:23.654Z,24.27
2022-09-28T02:35:57.742Z,24.42
2022-09-28T02:36:36.315Z,23.52
2022-09-28T02:37:08.499Z,24.67
2022-09-28T02:37:41.259Z,26.65
2022-09-28T02:38:17.875Z,24.40
2022-09-28T02:38:50.038Z,23.17
2022-09-28T02:39:22.567Z,24.23
2022-09-28T02:39:57.281Z,22.90
2022-09-28T02:40:33.907Z,24.45
2022-09-28T02:41:15.963Z,24.17
2022-09-28T02:42:04.607Z,23.98
2022-09-28T02:42:46.440Z,22.95
2022-09-28T02:43:29.718Z,24.23
2022-09-28T02:44:15.457Z,23.38
2022-09-28T02:45:00.930Z,24.02
2022-09-28T02:45:49.191Z,24.30
2022-09-28T02:46:29.947Z,25.33
2022-09-28T02:47:23.040Z,23.30
2022-09-28T02:48:07.785Z,23.48
2022-09-28T02:49:30.244Z,24.52
2022-09-28T02:50:06.476Z,24.98
2022-09-28T02:51:26.897Z,22.88
2022-09-28T02:52:16.272Z,23.98
2022-09-28T02:53:10.920Z,24.48
2022-09-28T02:54:06.379Z,25.45
2022-09-28T02:54:59.466Z,25.30
2022-09-28T02:55:44.560Z,20.88
2022-09-28T02:56:39.176Z,23.85
2022-09-28T02:57:20.458Z,23.75
2022-09-28T02:58:10.748Z,24.58
2022-09-28T02:58:59.885Z,25.27
2022-09-28T02:59:44.219Z,23.75
2022-09-28T03:00:19.326Z,26.33
2022-09-28T03:01:04.273Z,24.13
2022-09-28T03:01:44.769Z,24.45
2022-09-28T03:03:04.968Z,24.98
2022-09-28T03:03:47.190Z,23.15
2022-09-28T03:04:29.425Z,22.88
2022-09-28T03:05:16.737Z,23.25
2022-09-28T03:05:58.183Z,22.65
2022-09-28T03:06:40.292Z,24.67
2022-09-28T03:07:22.684Z,24.52
2022-09-28T03:07:59.609Z,23.70
2022-09-28T03:08:40.966Z,27.05
2022-09-28T03:09:21.729Z,24.02
2022-09-28T03:09:59.943Z,24.15
2022-09-28T03:10:41.793Z,26.23
2022-09-28T03:11:17.046Z,24.33
2022-09-28T03:11:56.254Z,23.55
2022-09-28T03:12:33.324Z,24.35
2022-09-28T03:13:07.572Z,23.63
2022-09-28T03:13:41.660Z,22.52
2022-09-28T03:14:19.669Z,23.63
2022-09-28T03:15:09.780Z,25.02
2022-09-28T03:15:48.521Z,25.23
2022-09-28T03:16:21.458Z,23.38
2022-09-28T03:16:54.785Z,22.27
2022-09-28T03:17:29.587Z,27.85
2022-09-28T03:18:02.071Z,24.55
2022-09-28T03:18:34.239Z,22.70
2022-09-28T03:19:08.930Z,22.02
2022-09-28T03:19:41.015Z,23.42
2022-09-28T03:20:13.186Z,24.70
2022-09-28T03:20:49.626Z,26.00
2022-09-28T03:21:21.898Z,24.58
2022-09-28T03:21:55.315Z,24.27
2022-09-28T03:22:30.110Z,23.15
2022-09-28T03:23:57.794Z,25.33
2022-09-28T03:24:29.857Z,24.95
2022-09-28T03:25:02.017Z,26.35
2022-09-28T03:25:36.826Z,25.40
2022-09-28T03:26:09.278Z,24.77
2022-09-28T03:26:41.593Z,26.15
2022-09-28T03:27:17.322Z,25.08
2022-09-28T03:27:49.516Z,24.48
2022-09-28T03:28:22.218Z,23.67
2022-09-28T03:28:57.135Z,24.58
2022-09-28T03:29:34.551Z,26.83
2022-09-28T03:30:14.267Z,25.58
2022-09-28T03:30:49.357Z,24.90
2022-09-28T03:31:21.468Z,24.10
2022-09-28T03:31:56.217Z,24.08
2022-09-28T03:32:28.609Z,24.55
2022-09-28T03:33:02.632Z,23.33
2022-09-28T03:33:39.728Z,25.88
2022-09-28T03:34:11.917Z,26.35
2022-09-28T03:34:44.010Z,26.27
2022-09-28T03:35:19.003Z,23.20
2022-09-28T03:35:51.420Z,24.08
2022-09-28T03:36:26.607Z,23.90
2022-09-28T03:36:58.713Z,22.83
2022-09-28T03:37:31.166Z,25.33
2022-09-28T03:38:06.049Z,22.60
2022-09-28T03:38:40.815Z,23.10
2022-09-28T03:39:12.939Z,23.55
2022-09-28T03:39:47.623Z,25.40
2022-09-28T03:40:19.746Z,26.40
2022-09-28T03:40:53.747Z,25.42
2022-09-28T03:41:29.328Z,26.00
2022-09-28T03:42:01.749Z,23.75
2022-09-28T03:42:37.677Z,23.30
2022-09-28T03:43:12.704Z,23.25
2022-09-28T03:43:45.160Z,20.70
2022-09-28T03:44:19.156Z,23.08
2022-09-28T03:44:56.926Z,23.38
2022-09-28T03:45:29.164Z,22.08
2022-09-28T03:46:02.349Z,23.05
2022-09-28T03:46:39.538Z,25.17
2022-09-28T03:47:15.876Z,22.98
2022-09-28T03:47:48.788Z,22.55
2022-09-28T03:48:31.878Z,24.80
2022-09-28T03:49:05.138Z,23.67
2022-09-28T03:49:37.385Z,22.60
2022-09-28T03:50:12.834Z,23.42
2022-09-28T03:50:45.011Z,23.55
2022-09-28T03:51:17.095Z,22.75
2022-09-28T03:51:51.771Z,23.83
2022-09-28T03:52:23.909Z,23.70
2022-09-28T03:52:56.017Z,23.77
2022-09-28T03:53:31.674Z,25.55
2022-09-28T03:54:05.815Z,23.80
2022-09-28T03:54:38.155Z,24.00
2022-09-28T03:55:13.707Z,23.77
2022-09-28T03:55:46.054Z,23.38
2022-09-28T03:56:18.307Z,23.55
2022-09-28T03:56:53.818Z,22.60
2022-09-28T03:57:26.088Z,21.85
2022-09-28T03:57:58.207Z,21.17
2022-09-28T03:58:33.209Z,21.90
2022-09-28T03:59:05.783Z,23.55
2022-09-28T03:59:38.019Z,21.95
2022-09-28T04:00:16.288Z,22.40
2022-09-28T04:00:49.280Z,23.70
2022-09-28T04:01:21.590Z,23.70
2022-09-28T04:01:57.222Z,22.02
2022-09-28T04:02:29.508Z,23.55
2022-09-28T04:03:01.671Z,23.45
2022-09-28T04:03:37.020Z,24.40
2022-09-28T04:04:12.037Z,22.63
2022-09-28T04:04:44.211Z,24.02
2022-09-28T04:05:19.126Z,21.73
2022-09-28T04:05:52.622Z,22.27
2022-09-28T04:06:24.918Z,23.35
2022-09-28T04:06:57.072Z,22.48
2022-09-28T04:07:32.631Z,21.95
2022-09-28T04:08:04.824Z,21.63
2022-09-28T04:08:37.014Z,23.73
2022-09-28T04:09:11.701Z,22.20
2022-09-28T04:09:43.846Z,24.48
2022-09-28T04:10:17.197Z,24.13
2022-09-28T04:10:51.949Z,23.50
2022-09-28T04:11:24.378Z,23.92
2022-09-28T04:12:03.891Z,23.52
2022-09-28T04:12:39.709Z,23.27
2022-09-28T04:13:12.434Z,22.10
2022-09-28T04:13:51.074Z,23.63
2022-09-28T04:14:23.543Z,22.40
2022-09-28T04:14:55.662Z,23.38
2022-09-28T04:15:32.932Z,21.98
2022-09-28T04:16:05.603Z,23.85
2022-09-28T04:16:39.600Z,23.10
2022-09-28T04:17:18.051Z,23.27
2022-09-28T04:17:50.335Z,23.38
2022-09-28T04:18:42.551Z,23.17
2022-09-28T04:19:25.349Z,22.65
2022-09-28T04:20:18.018Z,23.45
2022-09-28T04:21:09.425Z,21.02
2022-09-28T04:21:59.200Z,23.13
2022-09-28T04:22:34.806Z,21.98
2022-09-28T04:23:07.025Z,23.27
2022-09-28T04:23:40.241Z,22.65
2022-09-28T04:24:15.078Z,22.33
2022-09-28T04:24:47.314Z,23.58
2022-09-28T04:25:19.438Z,23.52
2022-09-28T04:25:55.239Z,22.52
2022-09-28T04:26:28.487Z,21.92
2022-09-28T04:27:16.876Z,22.05
2022-09-28T04:28:04.841Z,23.17
2022-09-28T04:28:51.992Z,21.10
2022-09-28T04:29:27.526Z,24.30
2022-09-28T04:30:01.575Z,21.98
2022-09-28T04:30:37.302Z,21.85
2022-09-28T04:31:14.073Z,24.80
2022-09-28T04:31:49.868Z,23.20
2022-09-28T04:32:24.761Z,22.27
2022-09-28T04:32:59.437Z,23.25
2022-09-28T04:33:34.433Z,23.25
2022-09-28T04:34:06.739Z,22.75
2022-09-28T04:34:44.082Z,24.73
2022-09-28T04:35:16.741Z,24.38
2022-09-28T04:35:48.909Z,23.35
2022-09-28T04:36:25.163Z,25.00
2022-09-28T04:36:57.303Z,22.45
2022-09-28T04:37:31.391Z,21.98
2022-09-28T04:38:06.206Z,20.65
2022-09-28T04:38:52.321Z,22.45
2022-09-28T04:39:27.483Z,22.50
2022-09-28T04:40:04.576Z,23.15
2022-09-28T04:40:37.313Z,23.52
2022-09-28T04:41:09.829Z,23.92
2022-09-28T04:41:45.187Z,22.23
2022-09-28T04:42:17.719Z,23.52
2022-09-28T04:42:54.082Z,22.02
2022-09-28T04:43:28.826Z,23.48
2022-09-28T04:44:01.189Z,23.33
2022-09-28T04:44:36.012Z,23.20
2022-09-28T04:45:12.624Z,22.60
2022-09-28T04:45:54.278Z,23.58
2022-09-28T04:46:27.169Z,21.52
2022-09-28T04:47:21.998Z,22.02
2022-09-28T04:48:12.742Z,22.20
2022-09-28T04:49:20.011Z,22.15
2022-09-28T04:49:57.148Z,22.50
2022-09-28T04:50:40.134Z,22.75
2022-09-28T04:51:20.477Z,21.42
2022-09-28T04:51:55.152Z,22.10
2022-09-28T04:52:27.394Z,20.70
2022-09-28T04:53:00.977Z,22.20
2022-09-28T04:53:35.878Z,22.98
2022-09-28T04:54:07.980Z,22.52
2022-09-28T04:54:40.079Z,23.45
2022-09-28T04:55:15.740Z,22.20
2022-09-28T04:55:58.982Z,22.52
2022-09-28T04:56:33.670Z,22.45
2022-09-28T04:57:06.270Z,21.90
2022-09-28T04:57:38.400Z,22.58
2022-09-28T04:58:10.502Z,24.20
2022-09-28T04:58:48.998Z,22.92
2022-09-28T04:59:24.437Z,22.35
2022-09-28T04:59:56.584Z,22.63
2022-09-28T05:00:35.990Z,26.63
2022-09-28T05:01:37.121Z,32.03
2022-09-28T05:02:30.693Z,24.20
2022-09-28T05:03:26.618Z,24.52
2022-09-28T05:04:36.496Z,22.25
2022-09-28T05:05:43.501Z,24.02
2022-09-28T05:06:37.479Z,21.23
2022-09-28T05:07:13.065Z,25.25
2022-09-28T05:07:46.132Z,22.75
2022-09-28T05:08:21.118Z,23.13
2022-09-28T05:08:54.021Z,23.05
2022-09-28T05:09:28.930Z,25.77
2022-09-28T05:10:01.691Z,25.30
2022-09-28T05:10:36.345Z,22.13
2022-09-28T05:11:14.766Z,21.63
2022-09-28T05:11:49.444Z,23.45
2022-09-28T05:12:26.817Z,23.15
2022-09-28T05:12:59.019Z,22.52
2022-09-28T05:13:33.586Z,23.35
2022-09-28T05:14:08.595Z,19.92
2022-09-28T05:14:41.464Z,24.27
2022-09-28T05:15:13.542Z,24.60
2022-09-28T05:15:48.384Z,24.40
2022-09-28T05:16:21.475Z,24.20
2022-09-28T05:18:14.787Z,22.98
2022-09-28T05:18:58.065Z,23.55
2022-09-28T05:19:30.507Z,21.83
2022-09-28T05:20:09.217Z,24.02
2022-09-28T05:20:44.424Z,20.88
2022-09-28T05:21:16.594Z,23.33
2022-09-28T05:21:49.286Z,24.20
2022-09-28T05:22:24.470Z,25.58
2022-09-28T05:22:56.703Z,23.50
2022-09-28T05:23:28.961Z,24.17
2022-09-28T05:24:07.745Z,23.92
2022-09-28T05:24:42.871Z,24.45
2022-09-28T05:25:15.301Z,23.17
2022-09-28T05:26:08.900Z,24.52
2022-09-28T05:26:41.558Z,24.33
2022-09-28T05:27:15.454Z,25.20
2022-09-28T05:27:58.574Z,24.27
2022-09-28T05:28:42.857Z,21.98
2022-09-28T05:29:30.101Z,24.40
2022-09-28T05:30:22.886Z,26.67
2022-09-28T05:31:33.103Z,22.00
2022-09-28T05:32:26.445Z,23.88
2022-09-28T05:33:21.286Z,23.73
2022-09-28T05:34:01.482Z,23.55
2022-09-28T05:34:36.497Z,23.42
2022-09-28T05:35:11.185Z,22.75
2022-09-28T05:35:55.942Z,23.40
2022-09-28T05:36:32.592Z,25.17
2022-09-28T05:37:04.698Z,22.27
2022-09-28T05:37:39.530Z,25.50
2022-09-28T05:38:11.842Z,25.13
2022-09-28T05:38:43.990Z,26.48
2022-09-28T05:39:18.858Z,23.60
2022-09-28T05:39:50.991Z,25.33
2022-09-28T05:40:23.625Z,23.98
2022-09-28T05:41:01.156Z,24.08
2022-09-28T05:41:35.577Z,23.00
2022-09-28T05:42:08.111Z,22.10
2022-09-28T05:42:40.862Z,22.50
2022-09-28T05:43:15.665Z,24.30
2022-09-28T05:43:48.834Z,24.23
2022-09-28T05:44:23.574Z,24.42
2022-09-28T05:44:58.429Z,24.13
2022-09-28T05:45:30.617Z,24.95
2022-09-28T05:46:05.515Z,23.77
2022-09-28T05:46:39.283Z,24.73
2022-09-28T05:47:11.449Z,28.27
2022-09-28T05:47:47.605Z,27.52
2022-09-28T05:48:26.246Z,25.13
2022-09-28T05:48:59.775Z,22.50
2022-09-28T05:49:35.186Z,24.15
2022-09-28T05:50:09.670Z,23.95
2022-09-28T05:50:41.968Z,24.88
2022-09-28T05:51:16.682Z,22.20
2022-09-28T05:51:48.843Z,24.27
2022-09-28T05:52:23.612Z,27.27
2022-09-28T05:52:59.938Z,25.67
2022-09-28T05:53:34.660Z,27.42
2022-09-28T05:54:06.868Z,25.52
2022-09-28T05:54:43.143Z,27.20
2022-09-28T05:55:18.846Z,25.63
2022-09-28T05:55:51.110Z,25.33
2022-09-28T05:56:25.941Z,24.90
2022-09-28T05:56:58.329Z,24.92
2022-09-28T05:57:31.913Z,25.92
2022-09-28T05:58:08.809Z,24.75
2022-09-28T05:58:40.898Z,23.90
2022-09-28T05:59:14.239Z,24.13
2022-09-28T05:59:49.669Z,24.05
2022-09-28T06:00:21.827Z,23.67
2022-09-28T06:01:01.438Z,24.33
2022-09-28T06:01:35.112Z,24.02
2022-09-28T06:02:08.212Z,24.48
2022-09-28T06:02:43.305Z,25.77
2022-09-28T06:03:18.027Z,24.45
2022-09-28T06:03:55.485Z,24.83
2022-09-28T06:04:27.798Z,25.83
2022-09-28T06:05:00.022Z,24.92
2022-09-28T06:05:34.991Z,25.08
2022-09-28T06:06:07.238Z,24.75
2022-09-28T06:06:48.595Z,25.60
2022-09-28T06:07:23.002Z,25.17
2022-09-28T06:07:57.183Z,26.65
2022-09-28T06:08:34.042Z,23.95
2022-09-28T06:09:21.682Z,22.95
2022-09-28T06:10:18.601Z,24.35
2022-09-28T06:10:50.845Z,24.08
2022-09-28T06:11:25.348Z,23.40
2022-09-28T06:12:01.070Z,25.08
2022-09-28T06:12:59.369Z,25.88
2022-09-28T06:13:35.123Z,24.77
2022-09-28T06:14:07.767Z,24.02
2022-09-28T06:14:40.388Z,23.10
2022-09-28T06:15:15.070Z,26.75
2022-09-28T06:15:48.102Z,25.95
2022-09-28T06:16:20.819Z,31.38
2022-09-28T06:16:55.556Z,27.55
2022-09-28T06:17:27.976Z,25.27
2022-09-28T06:18:22.714Z,25.48
2022-09-28T06:19:22.198Z,25.10
2022-09-28T06:20:15.466Z,26.00
2022-09-28T06:21:02.720Z,22.52
2022-09-28T06:21:43.810Z,25.90
2022-09-28T06:22:16.125Z,24.42
2022-09-28T06:23:00.996Z,24.25
2022-09-28T06:23:33.124Z,24.83
2022-09-28T06:24:05.709Z,22.50
2022-09-28T06:24:40.522Z,25.27
2022-09-28T06:25:12.764Z,25.75
2022-09-28T06:25:44.912Z,23.65
2022-09-28T06:26:20.174Z,25.00
2022-09-28T06:26:52.254Z,24.98
2022-09-28T06:27:25.327Z,22.77
2022-09-28T06:28:01.766Z,23.65
2022-09-28T06:28:33.879Z,23.65
2022-09-28T06:29:06.046Z,23.02
2022-09-28T06:29:40.794Z,22.38
2022-09-28T06:30:13.379Z,22.83
2022-09-28T06:30:45.809Z,25.50
2022-09-28T06:31:25.061Z,23.42
2022-09-28T06:31:57.199Z,25.27
2022-09-28T06:32:29.915Z,25.48
2022-09-28T06:33:05.304Z,24.60
2022-09-28T06:33:38.713Z,21.80
2022-09-28T06:34:11.764Z,24.60
2022-09-28T06:34:54.029Z,23.55
2022-09-28T06:35:30.920Z,23.08
2022-09-28T06:36:05.632Z,23.50
2022-09-28T06:36:37.795Z,24.70
2022-09-28T06:37:09.915Z,24.42
2022-09-28T06:37:47.409Z,23.05
2022-09-28T06:38:19.697Z,25.25
2022-09-28T06:38:56.145Z,24.30
2022-09-28T06:39:28.611Z,25.80
2022-09-28T06:40:01.242Z,24.83
2022-09-28T06:40:36.385Z,23.92
2022-09-28T06:41:09.980Z,25.13
2022-09-28T06:41:42.909Z,24.88
2022-09-28T06:42:23.489Z,22.85
2022-09-28T06:43:18.022Z,24.63
2022-09-28T06:44:08.735Z,22.58
2022-09-28T06:45:03.011Z,22.42
2022-09-28T06:45:54.220Z,24.00
2022-09-28T06:46:33.286Z,21.98
2022-09-28T06:47:05.510Z,23.45
2022-09-28T06:47:57.558Z,22.80
2022-09-28T06:48:38.211Z,22.00
2022-09-28T06:49:19.230Z,22.67
2022-09-28T06:50:14.660Z,23.58
2022-09-28T06:51:16.045Z,22.33
2022-09-28T06:52:02.804Z,24.88
2022-09-28T06:53:04.310Z,21.42
2022-09-28T06:53:55.541Z,23.27
2022-09-28T06:54:44.415Z,21.83
2022-09-28T06:55:29.251Z,21.98
2022-09-28T06:56:02.875Z,22.42
2022-09-28T06:56:38.197Z,21.05
2022-09-28T06:57:10.435Z,21.35
2022-09-28T06:57:42.529Z,21.88
2022-09-28T06:58:19.782Z,21.27
2022-09-28T06:58:52.054Z,23.75
2022-09-28T06:59:24.178Z,25.67
2022-09-28T06:59:59.476Z,22.55
2022-09-28T07:00:34.308Z,23.00
2022-09-28T07:01:09.699Z,24.73
2022-09-28T07:01:48.909Z,22.42
2022-09-28T07:02:52.626Z,24.55
2022-09-28T07:03:43.555Z,22.63
2022-09-28T07:04:44.998Z,23.52
2022-09-28T07:05:45.180Z,24.55
2022-09-28T07:06:38.678Z,23.38
2022-09-28T07:07:29.654Z,23.67
2022-09-28T07:08:14.445Z,23.25
2022-09-28T07:09:01.717Z,23.55
2022-09-28T07:09:56.409Z,23.00
2022-09-28T07:10:47.483Z,24.00
2022-09-28T07:11:34.455Z,21.55
2022-09-28T07:12:16.154Z,23.80
2022-09-28T07:13:02.072Z,23.08
2022-09-28T07:13:50.978Z,24.67
2022-09-28T07:14:45.749Z,24.00
2022-09-28T07:15:20.474Z,24.48
2022-09-28T07:15:57.755Z,26.50
2022-09-28T07:16:55.546Z,24.65
2022-09-28T07:17:24.728Z,24.25
2022-09-28T07:18:02.498Z,24.50
2022-09-28T07:18:35.564Z,23.98
2022-09-28T07:19:10.414Z,24.15
2022-09-28T07:19:42.577Z,24.73
2022-09-28T07:20:19.244Z,22.13
2022-09-28T07:20:59.114Z,22.42
2022-09-28T07:21:31.367Z,24.50
2022-09-28T07:22:09.048Z,24.60
2022-09-28T07:22:45.418Z,25.02
2022-09-28T07:23:23.798Z,25.92
2022-09-28T07:24:33.856Z,24.60
2022-09-28T07:25:25.700Z,22.63
2022-09-28T07:26:29.187Z,24.45
2022-09-28T07:27:07.165Z,24.85
2022-09-28T07:28:03.273Z,24.67
2022-09-28T07:28:55.997Z,23.02
2022-09-28T07:29:45.610Z,23.45
2022-09-28T07:30:29.093Z,23.50
2022-09-28T07:31:28.194Z,25.38
2022-09-28T07:32:16.579Z,23.77
2022-09-28T07:33:14.614Z,26.45
2022-09-28T07:34:10.520Z,28.05
2022-09-28T07:35:08.076Z,25.42
2022-09-28T07:35:55.453Z,23.88
2022-09-28T07:36:39.210Z,24.15
2022-09-28T07:37:11.854Z,25.45
2022-09-28T07:37:46.509Z,24.05
2022-09-28T07:38:19.106Z,23.17
2022-09-28T07:38:53.804Z,25.60
2022-09-28T07:39:26.031Z,24.05
2022-09-28T07:40:13.158Z,22.92
2022-09-28T07:41:00.510Z,23.73
2022-09-28T07:41:32.788Z,24.33
2022-09-28T07:42:10.079Z,25.15
2022-09-28T07:42:42.513Z,23.65
2022-09-28T07:43:20.575Z,23.33
2022-09-28T07:43:56.707Z,23.52
2022-09-28T07:44:29.894Z,22.35
2022-09-28T07:45:03.725Z,24.90
2022-09-28T07:45:38.701Z,22.85
2022-09-28T07:46:12.449Z,23.58
2022-09-28T07:46:51.749Z,23.17
2022-09-28T07:47:35.111Z,24.42
2022-09-28T07:48:28.937Z,22.38
2022-09-28T07:49:08.492Z,21.60
2022-09-28T07:50:05.065Z,22.25
2022-09-28T07:51:11.948Z,22.80
2022-09-28T07:51:46.622Z,22.55
2022-09-28T07:52:51.033Z,22.10
2022-09-28T07:53:43.384Z,24.55
2022-09-28T07:54:39.548Z,23.65
2022-09-28T07:55:30.159Z,21.15
2022-09-28T07:56:21.200Z,23.60
2022-09-28T07:57:00.305Z,19.08
2022-09-28T07:58:01.260Z,20.30
2022-09-28T07:58:56.452Z,16.98
2022-09-28T07:59:49.977Z,16.83
2022-09-28T08:00:40.434Z,15.23
2022-09-28T08:01:16.678Z,15.35
2022-09-28T08:01:49.593Z,15.57
2022-09-28T08:02:22.681Z,15.02
2022-09-28T08:02:57.473Z,15.90
2022-09-28T08:03:29.872Z,17.00
2022-09-28T08:04:04.853Z,15.10
2022-09-28T08:04:37.013Z,16.08
2022-09-28T08:05:12.577Z,15.30
2022-09-28T08:05:45.803Z,16.42
2022-09-28T08:06:23.378Z,15.77
2022-09-28T08:06:55.485Z,16.15
2022-09-28T08:07:27.742Z,14.68
2022-09-28T08:08:11.309Z,15.52
2022-09-28T08:08:44.778Z,13.65
2022-09-28T08:09:21.403Z,15.82
2022-09-28T08:10:13.881Z,13.90
2022-09-28T08:11:10.716Z,12.80
2022-09-28T08:12:04.591Z,13.07
2022-09-28T08:13:00.558Z,17.23
2022-09-28T08:13:58.252Z,14.07
2022-09-28T08:14:55.219Z,13.88
2022-09-28T08:15:52.064Z,15.00
2022-09-28T08:16:32.749Z,13.20
2022-09-28T08:17:18.467Z,15.35
2022-09-28T08:18:01.940Z,15.70
2022-09-28T08:18:38.234Z,14.50